createdAt,value
2019-03-29T00:00:23.882Z,96949.39
2019-03-29T00:01:27.481Z,96947.85
2019-03-29T00:02:30.985Z,96957.16
2019-03-29T00:03:35.019Z,96948.19
2019-03-29T00:04:38.557Z,96949.73
2019-03-29T00:05:42.077Z,96951.92
2019-03-29T00:06:45.590Z,96953.02
2019-03-29T00:07:49.098Z,96953.55
2019-03-29T00:08:52.522Z,96952.35
2019-03-29T00:09:55.972Z,96956.73
2019-03-29T00:10:59.402Z,96951.36
2019-03-29T00:12:02.902Z,96951.27
2019-03-29T00:13:06.404Z,96946.90
2019-03-29T00:14:09.832Z,96951.03
2019-03-29T00:15:13.320Z,96947.67
2019-03-29T00:16:16.777Z,96948.41
2019-03-29T00:17:20.217Z,96948.11
2019-03-29T00:18:23.702Z,96948.12
2019-03-29T00:19:27.817Z,96944.75
2019-03-29T00:20:31.273Z,96947.14
2019-03-29T00:21:34.710Z,96942.55
2019-03-29T00:22:38.141Z,96946.80
2019-03-29T00:23:41.571Z,96944.52
2019-03-29T00:24:44.998Z,96945.59
2019-03-29T00:25:48.457Z,96942.55
2019-03-29T00:26:52.564Z,96948.23
2019-03-29T00:27:56.663Z,96946.72
2019-03-29T00:29:00.094Z,96948.23
2019-03-29T00:30:03.864Z,96943.42
2019-03-29T00:31:07.322Z,96942.22
2019-03-29T00:32:10.750Z,96944.77
2019-03-29T00:33:14.191Z,96940.39
2019-03-29T00:34:17.697Z,96942.36
2019-03-29T00:35:21.193Z,96945.52
2019-03-29T00:36:25.307Z,96937.75
2019-03-29T00:37:29.362Z,96939.20
2019-03-29T00:38:32.803Z,96939.74
2019-03-29T00:39:36.234Z,96932.75
2019-03-29T00:40:39.671Z,96933.61
2019-03-29T00:41:43.131Z,96933.83
2019-03-29T00:42:46.581Z,96929.04
2019-03-29T00:43:50.078Z,96932.97
2019-03-29T00:44:53.511Z,96930.45
2019-03-29T00:45:56.951Z,96923.14
2019-03-29T00:47:00.397Z,96924.77
2019-03-29T00:48:03.966Z,96924.34
2019-03-29T00:49:07.399Z,96924.14
2019-03-29T00:50:10.985Z,96924.25
2019-03-29T00:51:14.438Z,96926.19
2019-03-29T00:52:17.867Z,96924.23
2019-03-29T00:53:21.293Z,96915.26
2019-03-29T00:54:24.728Z,96918.12
2019-03-29T00:55:28.161Z,96924.45
2019-03-29T00:56:31.677Z,96921.39
2019-03-29T00:57:35.117Z,96919.54
2019-03-29T00:58:38.550Z,96917.67
2019-03-29T00:59:41.991Z,96922.93
2019-03-29T01:00:45.435Z,96914.08
2019-03-29T01:01:48.874Z,96921.07
2019-03-29T01:02:52.299Z,96921.84
2019-03-29T01:03:55.805Z,96921.84
2019-03-29T01:04:59.249Z,96919.42
2019-03-29T01:06:02.675Z,96914.52
2019-03-29T01:07:06.202Z,96911.57
2019-03-29T01:08:10.801Z,96911.57
2019-03-29T01:09:14.294Z,96916.48
2019-03-29T01:10:17.788Z,96914.39
2019-03-29T01:11:21.223Z,96912.44
2019-03-29T01:12:24.682Z,96914.19
2019-03-29T01:13:28.110Z,96914.42
2019-03-29T01:14:31.678Z,96908.74
2019-03-29T01:15:35.912Z,96914.42
2019-03-29T01:16:39.392Z,96912.78
2019-03-29T01:17:42.846Z,96911.44
2019-03-29T01:18:46.279Z,96920.52
2019-03-29T01:19:49.710Z,96920.31
2019-03-29T01:20:53.210Z,96912.66
2019-03-29T01:21:56.659Z,96916.79
2019-03-29T01:23:00.084Z,96916.69
2019-03-29T01:24:03.587Z,96912.98
2019-03-29T01:25:08.330Z,96912.86
2019-03-29T01:26:12.122Z,96912.86
2019-03-29T01:27:15.567Z,96908.93
2019-03-29T01:28:18.998Z,96903.66
2019-03-29T01:29:22.427Z,96899.30
2019-03-29T01:30:25.856Z,96899.30
2019-03-29T01:31:29.287Z,96907.16
2019-03-29T01:32:33.058Z,96908.27
2019-03-29T01:33:36.537Z,96900.80
2019-03-29T01:34:39.983Z,96900.80
2019-03-29T01:35:43.482Z,96895.12
2019-03-29T01:36:46.940Z,96894.93
2019-03-29T01:37:50.366Z,96896.88
2019-03-29T01:38:53.798Z,96885.53
2019-03-29T01:39:57.360Z,96885.53
2019-03-29T01:41:01.136Z,96897.85
2019-03-29T01:42:04.820Z,96897.85
2019-03-29T01:43:08.345Z,96896.00
2019-03-29T01:44:11.752Z,96891.64
2019-03-29T01:45:15.252Z,96884.12
2019-03-29T01:46:18.695Z,96890.33
2019-03-29T01:47:22.133Z,96887.51
2019-03-29T01:48:25.569Z,96887.27
2019-03-29T01:49:28.996Z,96889.45
2019-03-29T01:50:32.426Z,96891.84
2019-03-29T01:51:35.953Z,96891.84
2019-03-29T01:52:39.467Z,96882.13
2019-03-29T01:53:42.941Z,96886.70
2019-03-29T01:54:46.444Z,96886.06
2019-03-29T01:55:49.874Z,96883.64
2019-03-29T01:56:53.378Z,96888.45
2019-03-29T01:57:56.823Z,96885.96
2019-03-29T01:59:00.253Z,96880.83
2019-03-29T02:00:03.820Z,96884.21
2019-03-29T02:01:07.242Z,96885.19
2019-03-29T02:02:10.679Z,96879.95
2019-03-29T02:03:14.189Z,96888.01
2019-03-29T02:04:17.625Z,96886.59
2019-03-29T02:05:21.055Z,96882.03
2019-03-29T02:06:24.525Z,96882.03
2019-03-29T02:07:27.966Z,96885.19
2019-03-29T02:08:36.040Z,96884.62
2019-03-29T02:09:36.649Z,96879.28
2019-03-29T02:10:40.076Z,96882.88
2019-03-29T02:11:43.495Z,96881.13
2019-03-29T02:12:46.923Z,96876.33
2019-03-29T02:13:51.221Z,96869.77
2019-03-29T02:14:54.697Z,96877.00
2019-03-29T02:15:58.136Z,96882.23
2019-03-29T02:17:01.567Z,96873.61
2019-03-29T02:18:05.064Z,96874.71
2019-03-29T02:19:08.519Z,96870.21
2019-03-29T02:20:12.406Z,96877.73
2019-03-29T02:21:16.923Z,96877.73
2019-03-29T02:22:20.393Z,96870.30
2019-03-29T02:23:23.825Z,96871.38
2019-03-29T02:24:27.292Z,96872.03
2019-03-29T02:25:30.754Z,96872.03
2019-03-29T02:26:34.870Z,96876.94
2019-03-29T02:27:38.460Z,96876.41
2019-03-29T02:28:41.894Z,96877.72
2019-03-29T02:29:45.345Z,96877.72
2019-03-29T02:30:48.800Z,96881.07
2019-03-29T02:31:52.246Z,96872.91
2019-03-29T02:32:55.662Z,96874.52
2019-03-29T02:33:59.098Z,96875.40
2019-03-29T02:35:02.875Z,96873.21
2019-03-29T02:36:06.772Z,96874.08
2019-03-29T02:37:10.522Z,96868.39
2019-03-29T02:38:13.949Z,96872.76
2019-03-29T02:39:17.465Z,96871.25
2019-03-29T02:40:22.703Z,96877.91
2019-03-29T02:41:26.210Z,96871.55
2019-03-29T02:42:29.653Z,96872.52
2019-03-29T02:43:33.083Z,96870.57
2019-03-29T02:44:36.514Z,96868.37
2019-03-29T02:45:39.971Z,96868.37
2019-03-29T02:46:43.476Z,96868.82
2019-03-29T02:47:48.738Z,96867.42
2019-03-29T02:48:52.233Z,96868.48
2019-03-29T02:49:55.656Z,96872.70
2019-03-29T02:50:59.107Z,96872.70
2019-03-29T02:52:02.741Z,96865.09
2019-03-29T02:53:06.240Z,96860.48
2019-03-29T02:54:09.670Z,96868.13
2019-03-29T02:55:13.179Z,96863.78
2019-03-29T02:56:16.708Z,96864.55
2019-03-29T02:57:20.165Z,96864.76
2019-03-29T02:58:23.600Z,96864.76
2019-03-29T02:59:27.103Z,96863.25
2019-03-29T03:00:30.529Z,96857.91
2019-03-29T03:01:33.989Z,96858.80
2019-03-29T03:02:37.489Z,96865.64
2019-03-29T03:03:40.986Z,96865.33
2019-03-29T03:04:44.427Z,96869.25
2019-03-29T03:05:47.870Z,96862.70
2019-03-29T03:06:51.315Z,96869.88
2019-03-29T03:07:54.773Z,96869.98
2019-03-29T03:09:12.138Z,96868.58
2019-03-29T03:10:05.096Z,96873.56
2019-03-29T03:11:08.667Z,96867.77
2019-03-29T03:12:12.112Z,96867.77
2019-03-29T03:13:15.551Z,96877.47
2019-03-29T03:14:18.979Z,96876.67
2019-03-29T03:15:22.412Z,96877.39
2019-03-29T03:16:25.921Z,96876.23
2019-03-29T03:17:29.371Z,96875.99
2019-03-29T03:18:32.822Z,96880.59
2019-03-29T03:19:36.268Z,96880.27
2019-03-29T03:20:39.704Z,96877.74
2019-03-29T03:21:43.139Z,96877.53
2019-03-29T03:22:46.665Z,96875.45
2019-03-29T03:23:50.108Z,96878.50
2019-03-29T03:24:53.518Z,96876.74
2019-03-29T03:25:57.028Z,96877.72
2019-03-29T03:27:00.530Z,96872.84
2019-03-29T03:28:03.984Z,96870.23
2019-03-29T03:29:07.410Z,96874.03
2019-03-29T03:30:12.140Z,96875.86
2019-03-29T03:31:15.687Z,96874.84
2019-03-29T03:32:19.119Z,96873.00
2019-03-29T03:33:22.633Z,96871.70
2019-03-29T03:34:26.130Z,96866.56
2019-03-29T03:35:29.577Z,96871.16
2019-03-29T03:36:33.148Z,96867.35
2019-03-29T03:37:36.753Z,96868.44
2019-03-29T03:38:40.273Z,96869.06
2019-03-29T03:39:43.702Z,96872.09
2019-03-29T03:40:47.153Z,96873.84
2019-03-29T03:41:50.631Z,96872.87
2019-03-29T03:42:54.230Z,96871.23
2019-03-29T03:43:57.694Z,96877.00
2019-03-29T03:45:01.184Z,96874.21
2019-03-29T03:46:04.665Z,96867.02
2019-03-29T03:47:08.093Z,96875.19
2019-03-29T03:48:11.608Z,96875.70
2019-03-29T03:49:15.130Z,96874.84
2019-03-29T03:50:27.305Z,96874.72
2019-03-29T03:51:30.801Z,96875.94
2019-03-29T03:52:34.300Z,96875.19
2019-03-29T03:53:37.989Z,96871.80
2019-03-29T03:54:42.062Z,96876.59
2019-03-29T03:55:45.566Z,96872.75
2019-03-29T03:56:51.157Z,96876.53
2019-03-29T03:57:57.759Z,96876.50
2019-03-29T03:59:00.252Z,96872.05
2019-03-29T04:00:05.860Z,96873.70
2019-03-29T04:01:09.364Z,96875.13
2019-03-29T04:02:12.870Z,96868.92
2019-03-29T04:03:16.299Z,96873.08
2019-03-29T04:04:19.765Z,96876.14
2019-03-29T04:05:23.203Z,96871.30
2019-03-29T04:06:26.635Z,96874.48
2019-03-29T04:07:30.068Z,96873.38
2019-03-29T04:08:33.577Z,96874.16
2019-03-29T04:09:49.329Z,96872.81
2019-03-29T04:10:42.454Z,96867.59
2019-03-29T04:11:45.860Z,96867.59
2019-03-29T04:12:49.292Z,96868.36
2019-03-29T04:13:52.742Z,96867.38
2019-03-29T04:14:56.182Z,96869.10
2019-03-29T04:15:59.684Z,96869.66
2019-03-29T04:17:03.184Z,96867.88
2019-03-29T04:18:06.703Z,96865.86
2019-03-29T04:19:10.140Z,96870.20
2019-03-29T04:20:13.712Z,96865.52
2019-03-29T04:21:17.227Z,96865.42
2019-03-29T04:22:20.673Z,96868.92
2019-03-29T04:23:24.170Z,96873.59
2019-03-29T04:24:27.614Z,96866.13
2019-03-29T04:25:31.193Z,96869.39
2019-03-29T04:26:34.689Z,96857.76
2019-03-29T04:27:38.123Z,96862.09
2019-03-29T04:28:41.557Z,96853.36
2019-03-29T04:29:45.028Z,96861.65
2019-03-29T04:30:48.477Z,96857.37
2019-03-29T04:31:51.973Z,96855.20
2019-03-29T04:32:55.478Z,96851.73
2019-03-29T04:33:58.904Z,96860.16
2019-03-29T04:35:02.362Z,96857.31
2019-03-29T04:36:06.147Z,96853.63
2019-03-29T04:37:09.568Z,96856.45
2019-03-29T04:38:13.071Z,96859.21
2019-03-29T04:39:16.722Z,96859.09
2019-03-29T04:40:20.200Z,96856.03
2019-03-29T04:41:23.629Z,96852.62
2019-03-29T04:42:27.065Z,96854.38
2019-03-29T04:43:30.571Z,96854.34
2019-03-29T04:44:34.023Z,96857.28
2019-03-29T04:45:37.529Z,96850.59
2019-03-29T04:46:40.963Z,96858.49
2019-03-29T04:47:44.399Z,96848.60
2019-03-29T04:48:47.833Z,96851.34
2019-03-29T04:49:51.354Z,96848.31
2019-03-29T04:50:54.852Z,96849.29
2019-03-29T04:51:58.346Z,96853.53
2019-03-29T04:53:01.789Z,96849.41
2019-03-29T04:54:05.289Z,96854.19
2019-03-29T04:55:08.885Z,96855.32
2019-03-29T04:56:12.310Z,96852.27
2019-03-29T04:57:15.806Z,96855.17
2019-03-29T04:58:19.313Z,96854.98
2019-03-29T04:59:22.757Z,96859.94
2019-03-29T05:00:26.202Z,96858.25
2019-03-29T05:01:29.635Z,96855.63
2019-03-29T05:02:33.104Z,96853.02
2019-03-29T05:03:36.583Z,96853.47
2019-03-29T05:04:40.128Z,96851.96
2019-03-29T05:05:43.700Z,96853.83
2019-03-29T05:06:47.143Z,96851.88
2019-03-29T05:07:50.576Z,96848.81
2019-03-29T05:08:53.995Z,96850.08
2019-03-29T05:09:57.444Z,96851.06
2019-03-29T05:11:00.872Z,96851.88
2019-03-29T05:12:04.382Z,96847.14
2019-03-29T05:13:07.812Z,96844.50
2019-03-29T05:14:11.263Z,96850.43
2019-03-29T05:15:14.722Z,96842.38
2019-03-29T05:16:18.157Z,96851.08
2019-03-29T05:17:21.598Z,96843.64
2019-03-29T05:18:25.065Z,96850.29
2019-03-29T05:19:28.500Z,96848.62
2019-03-29T05:20:31.955Z,96846.63
2019-03-29T05:21:35.382Z,96848.10
2019-03-29T05:22:38.817Z,96849.62
2019-03-29T05:23:42.354Z,96847.08
2019-03-29T05:24:45.854Z,96850.39
2019-03-29T05:25:49.312Z,96849.90
2019-03-29T05:26:52.752Z,96847.83
2019-03-29T05:27:56.241Z,96853.53
2019-03-29T05:28:59.678Z,96849.77
2019-03-29T05:30:03.141Z,96852.75
2019-03-29T05:31:06.575Z,96854.71
2019-03-29T05:32:10.006Z,96850.86
2019-03-29T05:33:13.437Z,96850.45
2019-03-29T05:34:16.867Z,96855.67
2019-03-29T05:35:20.317Z,96858.69
2019-03-29T05:36:23.816Z,96853.20
2019-03-29T05:37:27.238Z,96857.02
2019-03-29T05:38:30.684Z,96855.39
2019-03-29T05:39:34.111Z,96857.59
2019-03-29T05:40:37.563Z,96859.40
2019-03-29T05:41:40.997Z,96858.83
2019-03-29T05:42:44.511Z,96860.05
2019-03-29T05:43:48.007Z,96860.58
2019-03-29T05:44:51.434Z,96859.94
2019-03-29T05:45:54.877Z,96859.77
2019-03-29T05:46:58.314Z,96860.74
2019-03-29T05:48:01.823Z,96864.81
2019-03-29T05:49:05.267Z,96858.23
2019-03-29T05:50:08.856Z,96854.88
2019-03-29T05:51:12.285Z,96856.24
2019-03-29T05:52:15.718Z,96855.94
2019-03-29T05:53:19.376Z,96850.36
2019-03-29T05:54:22.802Z,96854.78
2019-03-29T05:55:32.639Z,96859.06
2019-03-29T05:56:31.438Z,96851.22
2019-03-29T05:57:34.907Z,96849.56
2019-03-29T05:58:38.342Z,96849.98
2019-03-29T05:59:41.845Z,96847.24
2019-03-29T06:00:45.370Z,96849.77
2019-03-29T06:01:48.929Z,96850.84
2019-03-29T06:02:52.362Z,96842.64
2019-03-29T06:03:55.926Z,96851.78
2019-03-29T06:04:59.377Z,96846.37
2019-03-29T06:06:02.836Z,96855.08
2019-03-29T06:07:06.266Z,96847.03
2019-03-29T06:08:09.793Z,96852.77
2019-03-29T06:09:13.218Z,96850.16
2019-03-29T06:10:16.718Z,96850.33
2019-03-29T06:11:20.171Z,96850.81
2019-03-29T06:12:23.608Z,96853.98
2019-03-29T06:13:27.123Z,96855.38
2019-03-29T06:14:30.556Z,96848.84
2019-03-29T06:15:34.006Z,96852.41
2019-03-29T06:16:39.151Z,96859.24
2019-03-29T06:17:48.522Z,96856.80
2019-03-29T06:18:47.854Z,96850.66
2019-03-29T06:19:51.287Z,96856.39
2019-03-29T06:20:54.723Z,96856.62
2019-03-29T06:21:58.157Z,96854.25
2019-03-29T06:23:01.591Z,96850.16
2019-03-29T06:24:05.119Z,96853.63
2019-03-29T06:25:08.672Z,96857.25
2019-03-29T06:26:12.125Z,96853.24
2019-03-29T06:27:15.571Z,96853.36
2019-03-29T06:28:19.005Z,96853.80
2019-03-29T06:29:22.564Z,96858.59
2019-03-29T06:30:29.849Z,96857.40
2019-03-29T06:31:33.313Z,96861.00
2019-03-29T06:32:36.801Z,96863.94
2019-03-29T06:33:40.321Z,96871.54
2019-03-29T06:34:43.867Z,96861.63
2019-03-29T06:35:50.141Z,96869.16
2019-03-29T06:36:55.029Z,96865.36
2019-03-29T06:37:58.906Z,96863.96
2019-03-29T06:39:04.252Z,96872.91
2019-03-29T06:40:10.162Z,96865.11
2019-03-29T06:41:13.684Z,96865.11
2019-03-29T06:42:17.114Z,96869.48
2019-03-29T06:43:20.550Z,96866.98
2019-03-29T06:44:23.986Z,96867.78
2019-03-29T06:45:27.425Z,96872.16
2019-03-29T06:46:30.949Z,96871.55
2019-03-29T06:47:34.381Z,96868.63
2019-03-29T06:48:37.821Z,96871.02
2019-03-29T06:49:41.322Z,96871.11
2019-03-29T06:50:44.951Z,96867.08
2019-03-29T06:51:48.358Z,96869.80
2019-03-29T06:52:51.791Z,96872.84
2019-03-29T06:53:55.303Z,96872.73
2019-03-29T06:54:58.751Z,96864.97
2019-03-29T06:56:02.253Z,96871.88
2019-03-29T06:57:05.709Z,96870.21
2019-03-29T06:58:09.141Z,96876.44
2019-03-29T06:59:12.574Z,96865.53
2019-03-29T07:00:16.643Z,96870.13
2019-03-29T07:01:20.098Z,96867.47
2019-03-29T07:02:23.634Z,96869.13
2019-03-29T07:03:27.221Z,96869.55
2019-03-29T07:04:30.661Z,96867.69
2019-03-29T07:05:34.088Z,96862.66
2019-03-29T07:06:37.541Z,96864.41
2019-03-29T07:07:44.339Z,96857.48
2019-03-29T07:08:46.138Z,96857.68
2019-03-29T07:09:49.566Z,96857.00
2019-03-29T07:10:52.999Z,96861.15
2019-03-29T07:11:56.524Z,96864.02
2019-03-29T07:12:59.993Z,96861.17
2019-03-29T07:14:03.558Z,96855.95
2019-03-29T07:15:07.329Z,96858.61
2019-03-29T07:16:10.766Z,96863.84
2019-03-29T07:17:14.290Z,96859.69
2019-03-29T07:18:17.728Z,96860.45
2019-03-29T07:19:21.162Z,96859.25
2019-03-29T07:20:24.590Z,96862.21
2019-03-29T07:21:28.019Z,96862.26
2019-03-29T07:22:34.544Z,96862.26
2019-03-29T07:23:36.687Z,96853.20
2019-03-29T07:24:40.127Z,96859.10
2019-03-29T07:25:43.563Z,96854.06
2019-03-29T07:26:47.000Z,96854.73
2019-03-29T07:27:52.325Z,96854.09
2019-03-29T07:28:55.736Z,96860.00
2019-03-29T07:29:59.173Z,96853.22
2019-03-29T07:31:02.599Z,96852.55
2019-03-29T07:32:06.028Z,96860.84
2019-03-29T07:33:09.477Z,96854.30
2019-03-29T07:34:12.903Z,96854.94
2019-03-29T07:35:16.405Z,96854.30
2019-03-29T07:36:19.916Z,96857.55
2019-03-29T07:37:23.346Z,96851.01
2019-03-29T07:38:26.799Z,96851.01
2019-03-29T07:39:30.328Z,96849.06
2019-03-29T07:40:33.762Z,96848.39
2019-03-29T07:41:37.258Z,96841.41
2019-03-29T07:42:40.713Z,96843.84
2019-03-29T07:43:44.190Z,96843.84
2019-03-29T07:44:47.683Z,96843.30
2019-03-29T07:45:51.118Z,96844.27
2019-03-29T07:46:54.696Z,96851.26
2019-03-29T07:47:58.226Z,96847.56
2019-03-29T07:49:01.689Z,96850.70
2019-03-29T07:50:07.030Z,96843.84
2019-03-29T07:51:10.892Z,96848.42
2019-03-29T07:52:14.302Z,96846.45
2019-03-29T07:53:17.725Z,96856.31
2019-03-29T07:54:21.171Z,96849.76
2019-03-29T07:55:24.640Z,96854.46
2019-03-29T07:56:28.067Z,96857.17
2019-03-29T07:57:31.488Z,96851.07
2019-03-29T07:58:34.981Z,96847.76
2019-03-29T07:59:38.451Z,96847.76
2019-03-29T08:00:42.518Z,96845.30
2019-03-29T08:01:45.918Z,96843.75
2019-03-29T08:02:49.345Z,96849.30
2019-03-29T08:03:53.361Z,96844.06
2019-03-29T08:04:57.074Z,96848.23
2019-03-29T08:06:00.502Z,96848.23
2019-03-29T08:07:03.941Z,96841.56
2019-03-29T08:08:07.378Z,96836.64
2019-03-29T08:09:21.668Z,96840.70
2019-03-29T08:10:25.783Z,96840.70
2019-03-29T08:11:26.247Z,96841.67
2019-03-29T08:12:26.547Z,96842.11
2019-03-29T08:13:30.041Z,96839.03
2019-03-29T08:14:33.511Z,96832.80
2019-03-29T08:15:36.959Z,96832.80
2019-03-29T08:16:40.469Z,96842.30
2019-03-29T08:17:43.899Z,96844.05
2019-03-29T08:18:47.338Z,96835.96
2019-03-29T08:20:09.396Z,96837.16
2019-03-29T08:20:55.943Z,96836.39
2019-03-29T08:21:59.383Z,96845.13
2019-03-29T08:23:02.825Z,96838.45
2019-03-29T08:24:06.255Z,96841.94
2019-03-29T08:25:09.843Z,96841.94
2019-03-29T08:26:13.340Z,96830.67
2019-03-29T08:27:16.769Z,96845.54
2019-03-29T08:28:20.202Z,96844.00
2019-03-29T08:29:23.698Z,96843.80
2019-03-29T08:30:27.166Z,96848.16
2019-03-29T08:31:30.663Z,96844.23
2019-03-29T08:32:34.090Z,96836.36
2019-03-29T08:33:37.519Z,96836.36
2019-03-29T08:34:41.019Z,96838.32
2019-03-29T08:35:44.475Z,96828.91
2019-03-29T08:36:47.898Z,96835.47
2019-03-29T08:37:51.332Z,96841.83
2019-03-29T08:38:54.758Z,96831.34
2019-03-29T08:39:58.197Z,96831.34
2019-03-29T08:41:01.642Z,96845.63
2019-03-29T08:42:05.140Z,96842.02
2019-03-29T08:43:08.524Z,96842.02
2019-03-29T08:44:12.092Z,96845.41
2019-03-29T08:45:15.750Z,96833.82
2019-03-29T08:46:19.337Z,96838.50
2019-03-29T08:47:22.770Z,96839.48
2019-03-29T08:48:26.273Z,96840.36
2019-03-29T08:49:29.713Z,96832.15
2019-03-29T08:50:33.234Z,96844.16
2019-03-29T08:51:36.735Z,96841.70
2019-03-29T08:52:40.240Z,96836.77
2019-03-29T08:53:43.755Z,96831.83
2019-03-29T08:54:47.188Z,96835.11
2019-03-29T08:55:50.631Z,96833.88
2019-03-29T08:56:54.066Z,96838.35
2019-03-29T08:57:57.499Z,96837.70
2019-03-29T08:59:00.925Z,96831.22
2019-03-29T09:00:06.859Z,96841.63
2019-03-29T09:01:10.515Z,96837.92
2019-03-29T09:02:14.088Z,96829.59
2019-03-29T09:03:17.589Z,96831.95
2019-03-29T09:04:21.815Z,96835.27
2019-03-29T09:05:25.440Z,96827.50
2019-03-29T09:06:30.320Z,96825.38
2019-03-29T09:07:44.436Z,96833.91
2019-03-29T09:08:39.497Z,96826.34
2019-03-29T09:09:46.257Z,96827.07
2019-03-29T09:10:48.221Z,96834.59
2019-03-29T09:11:51.817Z,96834.86
2019-03-29T09:12:55.337Z,96827.25
2019-03-29T09:13:58.750Z,96823.36
2019-03-29T09:15:04.105Z,96819.19
2019-03-29T09:16:07.482Z,96822.20
2019-03-29T09:17:11.001Z,96829.72
2019-03-29T09:18:14.428Z,96822.80
2019-03-29T09:19:17.860Z,96821.84
2019-03-29T09:20:21.298Z,96821.91
2019-03-29T09:21:24.747Z,96824.42
2019-03-29T09:22:28.182Z,96826.15
2019-03-29T09:23:31.723Z,96818.03
2019-03-29T09:24:35.230Z,96816.59
2019-03-29T09:25:40.440Z,96821.15
2019-03-29T09:26:43.850Z,96815.89
2019-03-29T09:27:47.349Z,96816.12
2019-03-29T09:28:50.804Z,96817.43
2019-03-29T09:29:54.260Z,96821.13
2019-03-29T09:30:57.711Z,96822.81
2019-03-29T09:32:01.228Z,96818.42
2019-03-29T09:33:04.800Z,96824.17
2019-03-29T09:34:08.370Z,96821.89
2019-03-29T09:35:12.004Z,96819.68
2019-03-29T09:36:15.627Z,96825.53
2019-03-29T09:37:19.114Z,96820.59
2019-03-29T09:38:22.558Z,96815.44
2019-03-29T09:39:26.002Z,96819.48
2019-03-29T09:40:29.598Z,96819.36
2019-03-29T09:41:33.092Z,96816.45
2019-03-29T09:42:36.605Z,96817.98
2019-03-29T09:43:40.044Z,96820.27
2019-03-29T09:44:43.493Z,96818.05
2019-03-29T09:45:46.932Z,96811.29
2019-03-29T09:46:50.437Z,96811.48
2019-03-29T09:47:55.925Z,96809.91
2019-03-29T09:48:59.233Z,96812.70
2019-03-29T09:50:02.995Z,96809.79
2019-03-29T09:51:09.862Z,96811.20
2019-03-29T09:52:13.294Z,96819.28
2019-03-29T09:53:16.734Z,96807.58
2019-03-29T09:54:20.648Z,96808.41
2019-03-29T09:55:24.128Z,96810.08
2019-03-29T09:56:38.659Z,96809.72
2019-03-29T09:57:37.275Z,96804.95
2019-03-29T09:58:38.878Z,96803.50
2019-03-29T09:59:42.312Z,96797.30
2019-03-29T10:00:45.787Z,96799.87
2019-03-29T10:01:49.321Z,96794.18
2019-03-29T10:02:52.764Z,96802.86
2019-03-29T10:03:56.291Z,96796.98
2019-03-29T10:04:59.782Z,96797.67
2019-03-29T10:06:03.446Z,96796.22
2019-03-29T10:07:06.983Z,96799.17
2019-03-29T10:08:10.449Z,96797.81
2019-03-29T10:09:13.898Z,96798.97
2019-03-29T10:10:17.424Z,96796.06
2019-03-29T10:11:22.235Z,96792.74
2019-03-29T10:12:25.775Z,96790.84
2019-03-29T10:13:29.295Z,96788.30
2019-03-29T10:14:33.629Z,96791.20
2019-03-29T10:15:37.303Z,96787.81
2019-03-29T10:16:40.725Z,96784.63
2019-03-29T10:17:44.308Z,96780.23
2019-03-29T10:18:47.699Z,96782.19
2019-03-29T10:19:51.132Z,96779.00
2019-03-29T10:20:54.588Z,96775.69
2019-03-29T10:21:58.055Z,96768.60
2019-03-29T10:23:01.570Z,96775.87
2019-03-29T10:24:05.082Z,96773.00
2019-03-29T10:25:19.121Z,96771.23
2019-03-29T10:26:13.927Z,96768.31
2019-03-29T10:27:18.995Z,96766.86
2019-03-29T10:28:22.772Z,96767.34
2019-03-29T10:29:26.221Z,96769.91
2019-03-29T10:30:37.690Z,96771.90
2019-03-29T10:31:41.196Z,96764.44
2019-03-29T10:32:44.730Z,96770.45
2019-03-29T10:33:49.237Z,96776.43
2019-03-29T10:34:52.893Z,96769.17
2019-03-29T10:35:56.478Z,96781.79
2019-03-29T10:36:59.919Z,96775.77
2019-03-29T10:38:03.443Z,96771.73
2019-03-29T10:39:09.951Z,96772.04
2019-03-29T10:40:13.537Z,96764.03
2019-03-29T10:41:16.969Z,96763.27
2019-03-29T10:42:20.485Z,96758.84
2019-03-29T10:43:23.942Z,96748.95
2019-03-29T10:44:27.476Z,96754.53
2019-03-29T10:45:30.912Z,96758.78
2019-03-29T10:46:34.438Z,96753.40
2019-03-29T10:47:43.616Z,96753.87
2019-03-29T10:48:43.164Z,96757.16
2019-03-29T10:49:46.696Z,96756.23
2019-03-29T10:50:50.152Z,96748.32
2019-03-29T10:51:53.587Z,96751.24
2019-03-29T10:52:57.157Z,96745.66
2019-03-29T10:54:00.684Z,96753.27
2019-03-29T10:55:04.684Z,96744.06
2019-03-29T10:56:08.222Z,96746.46
2019-03-29T10:57:11.640Z,96752.35
2019-03-29T10:58:15.139Z,96749.98
2019-03-29T10:59:27.184Z,96752.20
2019-03-29T11:00:38.491Z,96750.20
2019-03-29T11:01:41.926Z,96745.13
2019-03-29T11:02:45.354Z,96747.87
2019-03-29T11:03:48.806Z,96747.56
2019-03-29T11:04:52.290Z,96738.48
2019-03-29T11:05:55.787Z,96746.45
2019-03-29T11:06:59.290Z,96737.61
2019-03-29T11:08:02.883Z,96739.42
2019-03-29T11:09:07.857Z,96738.16
2019-03-29T11:10:17.054Z,96739.96
2019-03-29T11:11:20.570Z,96741.66
2019-03-29T11:12:24.072Z,96743.31
2019-03-29T11:13:27.647Z,96745.09
2019-03-29T11:14:31.224Z,96741.44
2019-03-29T11:15:35.041Z,96730.62
2019-03-29T11:16:38.579Z,96736.40
2019-03-29T11:17:42.014Z,96733.45
2019-03-29T11:18:45.884Z,96731.48
2019-03-29T11:19:49.479Z,96737.10
2019-03-29T11:20:53.101Z,96731.52
2019-03-29T11:21:56.576Z,96735.17
2019-03-29T11:23:00.156Z,96726.80
2019-03-29T11:24:03.695Z,96725.47
2019-03-29T11:25:07.247Z,96726.91
2019-03-29T11:26:10.720Z,96726.77
2019-03-29T11:27:14.165Z,96727.59
2019-03-29T11:28:17.755Z,96723.95
2019-03-29T11:29:21.270Z,96729.63
2019-03-29T11:30:24.759Z,96733.28
2019-03-29T11:31:28.369Z,96735.16
2019-03-29T11:32:31.853Z,96733.67
2019-03-29T11:33:35.362Z,96734.66
2019-03-29T11:34:38.857Z,96732.78
2019-03-29T11:35:42.286Z,96733.78
2019-03-29T11:36:45.737Z,96734.04
2019-03-29T11:37:49.201Z,96728.06
2019-03-29T11:38:52.644Z,96731.36
2019-03-29T11:39:56.072Z,96728.19
2019-03-29T11:40:59.575Z,96731.39
2019-03-29T11:42:03.633Z,96736.91
2019-03-29T11:43:07.173Z,96722.31
2019-03-29T11:44:10.768Z,96727.25
2019-03-29T11:45:14.263Z,96710.84
2019-03-29T11:46:17.803Z,96712.96
2019-03-29T11:47:21.311Z,96707.31
2019-03-29T11:48:24.749Z,96716.02
2019-03-29T11:49:28.183Z,96713.95
2019-03-29T11:50:31.692Z,96716.63
2019-03-29T11:51:35.203Z,96709.41
2019-03-29T11:52:38.809Z,96706.59
2019-03-29T11:53:42.313Z,96708.31
2019-03-29T11:54:45.775Z,96700.56
2019-03-29T11:55:49.209Z,96696.96
2019-03-29T11:56:52.651Z,96705.16
2019-03-29T11:57:56.132Z,96699.07
2019-03-29T11:58:59.699Z,96700.58
2019-03-29T12:00:03.372Z,96701.14
2019-03-29T12:01:06.805Z,96697.55
2019-03-29T12:02:10.428Z,96703.59
2019-03-29T12:03:14.503Z,96700.20
2019-03-29T12:04:18.022Z,96700.41
2019-03-29T12:05:21.460Z,96698.50
2019-03-29T12:06:24.983Z,96702.64
2019-03-29T12:07:28.507Z,96704.89
2019-03-29T12:08:31.965Z,96703.55
2019-03-29T12:09:35.403Z,96704.13
2019-03-29T12:10:38.989Z,96703.36
2019-03-29T12:11:42.414Z,96698.77
2019-03-29T12:12:46.030Z,96698.74
2019-03-29T12:13:49.464Z,96696.98
2019-03-29T12:14:52.973Z,96689.50
2019-03-29T12:15:56.481Z,96693.32
2019-03-29T12:17:00.025Z,96684.34
2019-03-29T12:18:03.549Z,96687.61
2019-03-29T12:19:07.142Z,96691.03
2019-03-29T12:20:10.643Z,96691.55
2019-03-29T12:21:14.151Z,96688.59
2019-03-29T12:22:17.586Z,96680.92
2019-03-29T12:23:21.043Z,96683.97
2019-03-29T12:24:24.550Z,96681.93
2019-03-29T12:25:28.065Z,96684.95
2019-03-29T12:26:31.502Z,96676.09
2019-03-29T12:27:34.956Z,96681.22